Rocky Mount, North Carolina
Current Conditions -  °F | °C
As of 5:53 PM on Monday 20 Oct 2014 (Local Time) from KRWI Reporting Station
Clear Clear  
Wind Chill: 67°   Ceiling: Unl
Heat Index: 67°   Visibility: 10mi
Dew Point: 51°   Wind: 3mph
Humidity: 57%   Direction: 190°S
Pressure: 29.99"   Gusts: NA
Location:  35.95°N, 77.79°W
Report Text: KRWI 202153Z AUTO 19003KT 10SM CLR 19/11 A2999 RMK AO2 SLP156 T01940106
Loading
Personal Weather Stations






























Interactive Weather Map
Tropical Storm Tracking
New forecast layout! Learn more

10-Day Weather Forecast

Advertisements
Track Severe Weather on mobile